Time;durP1;ratioP1;P1;durP2;ratioP2;P2;SDS_P1;SDS_P2;PMS_P1;PMS_P2;Temp;Humidity;BMP_temperature;BMP_pressure;BME280_temperature;BME280_humidity;BME280_pressure;Samples;Min_cycle;Max_cycle;Signal;HPM_P1;HPM_P2
2021/04/07 00:00:42;;;;;;;4.50;4.10;;;3.50;90.90;;;2.98;86.55;97668.72;5060458;28;21101;-70
2021/04/07 00:03:11;;;;;;;6.20;4.23;;;3.50;90.90;;;2.98;86.38;97664.41;5063306;28;20631;-70
2021/04/07 00:05:44;;;;;;;5.43;4.83;;;3.50;91.20;;;3.01;86.89;97672.00;5064963;28;21187;-70
2021/04/07 00:08:16;;;;;;;5.17;4.40;;;3.50;91.30;;;3.00;86.49;97666.91;5066136;28;20659;-70
2021/04/07 00:10:45;;;;;;;5.63;4.80;;;3.50;91.00;;;2.98;87.06;97669.56;5068266;28;20638;-70
2021/04/07 00:13:17;;;;;;;5.07;4.57;;;3.50;91.00;;;3.03;86.07;97669.34;5062410;28;20739;-70
2021/04/07 00:15:45;;;;;;;5.57;4.97;;;3.50;90.90;;;3.04;86.65;97673.59;5064138;28;20635;-70
2021/04/07 00:18:15;;;;;;;5.53;5.03;;;3.50;91.00;;;3.08;87.17;97675.97;5059289;28;20627;-70
2021/04/07 00:20:45;;;;;;;5.77;4.97;;;3.50;91.10;;;3.10;86.48;97673.31;5066098;28;20756;-70
2021/04/07 00:23:13;;;;;;;6.83;4.73;;;3.60;91.10;;;3.12;86.68;97677.47;5066043;28;20697;-70
2021/04/07 00:25:42;;;;;;;5.60;4.93;;;3.60;91.00;;;3.10;87.03;97676.72;5066266;28;20627;-70
2021/04/07 00:28:11;;;;;;;5.37;4.90;;;3.60;91.10;;;3.08;86.85;97677.69;5067969;28;20651;-70
2021/04/07 00:30:39;;;;;;;6.13;5.30;;;3.60;91.00;;;3.07;86.74;97679.44;5063789;28;20627;-70
2021/04/07 00:33:10;;;;;;;5.30;4.70;;;3.60;91.10;;;3.07;86.49;97679.44;5062824;28;20648;-70
2021/04/07 00:35:38;;;;;;;6.37;4.83;;;3.50;91.10;;;3.09;86.88;97676.78;5063256;28;21264;-70
2021/04/07 00:38:06;;;;;;;4.70;4.20;;;3.60;91.10;;;3.09;86.45;97681.94;5062484;28;20636;-70
2021/04/07 00:40:33;;;;;;;6.33;5.17;;;3.60;91.00;;;3.06;86.37;97676.94;5066601;28;21197;-70
2021/04/07 00:43:03;;;;;;;5.13;4.50;;;3.50;91.20;;;3.03;86.57;97685.63;5064368;28;20638;-70
2021/04/07 00:45:31;;;;;;;4.83;4.43;;;3.50;90.80;;;3.03;86.30;97684.78;5057971;28;21446;-70
2021/04/07 00:48:00;;;;;;;5.10;4.60;;;3.50;91.00;;;3.04;86.19;97686.47;5063023;28;20692;-70
2021/04/07 00:50:31;;;;;;;4.50;4.03;;;3.50;91.00;;;3.04;86.44;97689.88;5062754;28;20639;-70
2021/04/07 00:53:02;;;;;;;5.73;5.13;;;3.50;91.00;;;3.09;86.61;97694.81;5061539;28;21040;-70
2021/04/07 00:55:34;;;;;;;5.23;4.60;;;3.60;91.20;;;3.01;86.63;97702.88;5065757;28;20631;-70
2021/04/07 00:58:03;;;;;;;8.60;5.13;;;3.50;91.10;;;3.03;86.08;97705.41;5065458;28;20644;-70
2021/04/07 01:00:31;;;;;;;5.70;5.10;;;3.50;91.00;;;3.01;86.30;97702.88;5061826;28;20640;-70
2021/04/07 01:03:01;;;;;;;5.10;4.60;;;3.50;90.90;;;3.01;86.98;97708.03;5061817;28;21196;-70
2021/04/07 01:05:30;;;;;;;5.77;4.83;;;3.50;91.00;;;3.04;86.48;97707.09;5058263;28;20642;-70
2021/04/07 01:07:58;;;;;;;5.60;5.00;;;3.50;91.00;;;3.03;86.39;97705.41;5063005;28;20662;-70
2021/04/07 01:10:27;;;;;;;6.10;4.80;;;3.60;91.00;;;3.05;86.41;97711.31;5063022;28;20694;-70
2021/04/07 01:12:55;;;;;;;5.90;5.30;;;3.60;91.10;;;3.03;86.23;97706.22;5062346;28;21182;-70
2021/04/07 01:15:24;;;;;;;6.27;5.10;;;3.50;91.00;;;3.02;86.69;97711.44;5062374;28;21231;-70
2021/04/07 01:17:52;;;;;;;6.10;5.07;;;3.50;91.00;;;3.04;86.03;97712.22;5059923;28;20639;-70
2021/04/07 01:20:25;;;;;;;5.10;4.60;;;3.60;91.10;;;3.05;86.70;97719.03;5064575;28;21195;-70
2021/04/07 01:22:59;;;;;;;6.50;5.53;;;3.60;91.00;;;3.08;85.79;97716.31;5071207;28;20635;-70
2021/04/07 01:25:28;;;;;;;5.53;4.93;;;3.60;90.90;;;3.09;86.28;97715.41;5065811;28;20630;-70
2021/04/07 01:27:56;;;;;;;5.03;4.53;;;3.60;91.20;;;3.12;85.71;97723.84;5064174;28;20674;-70
2021/04/07 01:30:25;;;;;;;5.80;4.40;;;3.60;90.80;;;3.16;86.00;97716.78;5067067;28;21539;-70
2021/04/07 01:32:53;;;;;;;6.23;5.10;;;3.70;90.70;;;3.13;85.49;97722.09;5062956;28;20635;-70
2021/04/07 01:35:23;;;;;;;7.17;4.50;;;3.60;90.40;;;3.08;85.67;97724.03;5062540;28;20756;-70
2021/04/07 01:37:50;;;;;;;5.10;4.60;;;3.60;90.80;;;3.06;85.43;97720.72;5067396;28;20631;-70
2021/04/07 01:40:18;;;;;;;6.73;4.77;;;3.60;90.40;;;3.07;85.46;97723.22;5061369;28;20633;-70
2021/04/07 01:42:50;;;;;;;6.37;4.23;;;3.60;90.50;;;3.08;86.00;97731.78;5060430;28;20643;-70
2021/04/07 01:45:18;;;;;;;5.23;4.10;;;3.60;90.50;;;3.08;85.67;97727.47;5093028;28;20971;-70
2021/04/07 01:47:46;;;;;;;4.00;3.57;;;3.60;90.40;;;3.07;85.05;97730.94;5061047;28;21225;-70
2021/04/07 01:50:14;;;;;;;4.33;3.93;;;3.60;90.30;;;3.03;85.30;97733.72;5060719;28;20640;-70
2021/04/07 01:52:42;;;;;;;5.43;3.90;;;3.50;90.20;;;3.08;84.83;97734.34;5059501;28;20685;-70
2021/04/07 01:55:11;;;;;;;4.00;3.60;;;3.50;90.50;;;3.00;84.82;97729.53;5061196;28;20628;-70
2021/04/07 01:57:39;;;;;;;5.00;4.00;;;3.50;90.00;;;2.98;84.54;97733.94;5076523;28;20624;-70
2021/04/07 02:00:14;;;;;;;6.77;4.30;;;3.50;90.00;;;2.90;84.99;97735.16;5054549;28;20667;-70
2021/04/07 02:02:43;;;;;;;5.63;4.33;;;3.40;90.00;;;2.89;85.27;97736.09;5061923;28;20651;-70
2021/04/07 02:05:13;;;;;;;7.37;4.50;;;3.40;90.10;;;2.88;85.37;97739.53;5062494;28;20640;-70
2021/04/07 02:07:41;;;;;;;6.63;5.00;;;3.40;90.10;;;2.79;85.33;97745.91;5062390;28;20663;-70
2021/04/07 02:10:11;;;;;;;6.13;4.67;;;3.30;90.20;;;2.85;84.98;97745.66;5062718;28;21158;-70
2021/04/07 02:12:39;;;;;;;5.53;4.50;;;3.40;90.20;;;2.81;85.12;97756.16;5063364;28;20674;-70
2021/04/07 02:15:12;;;;;;;6.40;5.17;;;3.30;90.30;;;2.81;85.34;97754.44;5064396;28;20640;-70
2021/04/07 02:17:40;;;;;;;5.23;4.73;;;3.30;90.30;;;2.82;85.29;97757.84;5063550;28;20628;-70
2021/04/07 02:20:09;;;;;;;4.67;4.00;;;3.30;90.30;;;2.81;85.34;97759.59;5053650;28;20665;-70
2021/04/07 02:22:37;;;;;;;7.00;4.87;;;3.30;90.20;;;2.74;85.89;97765.06;5061198;28;21055;-70
2021/04/07 02:25:07;;;;;;;5.93;4.80;;;3.30;90.70;;;2.78;85.74;97773.47;5062355;28;20993;-70
2021/04/07 02:27:35;;;;;;;5.70;4.90;;;3.30;90.60;;;2.74;85.81;97767.63;5062346;28;20636;-70
2021/04/07 02:30:08;;;;;;;6.30;4.23;;;3.30;90.60;;;2.74;85.73;97774.50;5063465;28;20639;-70
2021/04/07 02:32:37;;;;;;;5.47;4.47;;;3.20;90.40;;;2.71;85.43;97772.91;5061282;28;20631;-70
2021/04/07 02:35:07;;;;;;;5.17;4.40;;;3.20;90.40;;;2.82;85.32;97775.84;5066746;28;20671;-70
2021/04/07 02:37:34;;;;;;;6.30;4.10;;;3.30;90.50;;;2.81;85.20;97780.19;5058413;28;20635;-70
2021/04/07 02:40:03;;;;;;;8.43;4.70;;;3.30;90.30;;;2.77;85.33;97780.38;5055772;28;20620;-70
2021/04/07 02:42:32;;;;;;;5.30;4.57;;;3.30;90.30;;;2.80;85.68;97781.06;5059013;28;20647;-70
2021/04/07 02:44:59;;;;;;;5.80;4.20;;;3.30;90.50;;;2.82;85.53;97781.81;5056819;28;20635;-70
2021/04/07 02:47:28;;;;;;;6.03;4.87;;;3.30;90.50;;;2.86;85.20;97787.69;5066156;28;20644;-70
2021/04/07 02:49:55;;;;;;;6.43;4.43;;;3.40;90.50;;;2.83;85.00;97792.97;5059682;28;20635;-70
2021/04/07 02:52:23;;;;;;;6.47;4.70;;;3.40;90.20;;;2.80;85.46;97795.69;5061442;28;20635;-70
2021/04/07 02:54:52;;;;;;;7.73;4.63;;;3.30;90.20;;;2.81;85.52;97800.78;5062292;28;20639;-70
2021/04/07 02:57:19;;;;;;;7.90;4.50;;;3.30;90.30;;;2.85;85.08;97791.16;5061502;28;20636;-70
2021/04/07 02:59:49;;;;;;;6.37;4.40;;;3.40;90.40;;;2.86;84.73;97803.16;5069459;28;20669;-70
2021/04/07 03:02:16;;;;;;;6.33;3.67;;;3.40;90.50;;;2.82;84.45;97804.16;5063652;28;20639;-70
2021/04/07 03:04:45;;;;;;;4.57;3.90;;;3.40;90.10;;;2.83;84.97;97803.28;5062794;28;20660;-70
2021/04/07 03:07:13;;;;;;;7.00;4.33;;;3.30;90.10;;;2.82;85.09;97809.31;5064277;28;20640;-70
2021/04/07 03:09:40;;;;;;;7.93;4.77;;;3.40;90.20;;;2.82;85.31;97807.56;5063827;28;20659;-70
2021/04/07 03:12:08;;;;;;;5.70;4.47;;;3.30;90.20;;;2.81;85.18;97816.22;5066471;28;20632;-70
2021/04/07 03:14:36;;;;;;;8.10;4.30;;;3.30;90.20;;;2.85;85.28;97816.91;5067664;28;21002;-70
2021/04/07 03:17:04;;;;;;;5.20;4.10;;;3.40;90.40;;;2.89;85.16;97818.47;5068723;28;20636;-70
2021/04/07 03:19:32;;;;;;;5.90;4.40;;;3.40;90.30;;;2.83;85.06;97824.69;5061057;28;20625;-71
2021/04/07 03:22:00;;;;;;;6.60;4.50;;;3.40;90.10;;;2.81;85.04;97820.50;5064735;28;20639;-70
2021/04/07 03:24:30;;;;;;;9.30;4.40;;;3.40;90.10;;;2.92;84.65;97831.22;5066677;28;20635;-70
2021/04/07 03:26:58;;;;;;;7.80;4.30;;;3.40;90.10;;;2.89;84.46;97829.59;5064553;28;20635;-70
2021/04/07 03:29:25;;;;;;;8.37;4.43;;;3.40;90.10;;;2.89;84.45;97828.75;5065510;28;20647;-70
2021/04/07 03:31:53;;;;;;;4.10;3.67;;;3.50;90.00;;;2.85;84.07;97827.22;5067490;28;20709;-70
2021/04/07 03:34:21;;;;;;;5.37;3.90;;;3.40;89.70;;;2.81;84.24;97833.38;5065288;28;20663;-70
2021/04/07 03:36:49;;;;;;;6.30;4.17;;;3.30;89.50;;;2.83;85.09;97840.16;5062404;28;21286;-70
2021/04/07 03:39:18;;;;;;;5.83;4.27;;;3.40;90.00;;;2.85;84.98;97840.09;5062801;28;20645;-70
2021/04/07 03:41:47;;;;;;;8.87;5.50;;;3.40;90.00;;;2.85;84.66;97835.75;5065027;28;20869;-70
2021/04/07 03:44:15;;;;;;;6.60;4.60;;;3.40;90.20;;;2.89;84.14;97844.22;5063732;28;20643;-70
2021/04/07 03:46:43;;;;;;;4.93;4.33;;;3.40;89.70;;;2.93;83.77;97840.59;5066876;28;20640;-70
2021/04/07 03:49:11;;;;;;;6.50;5.00;;;3.40;89.10;;;2.95;83.44;97841.38;5060599;28;21302;-70
2021/04/07 03:51:38;;;;;;;7.07;4.93;;;3.50;88.80;;;2.94;83.35;97842.28;5060229;28;20628;-70
2021/04/07 03:54:06;;;;;;;4.80;4.30;;;3.50;88.20;;;2.93;83.67;97851.75;5062983;28;20717;-70
2021/04/07 03:56:35;;;;;;;7.77;4.60;;;3.50;88.50;;;3.00;82.78;97857.47;5080136;28;20640;-70
2021/04/07 03:59:02;;;;;;;5.33;4.20;;;3.50;87.50;;;2.97;82.72;97847.28;5067276;28;20635;-70
2021/04/07 04:01:30;;;;;;;4.97;4.17;;;3.50;87.00;;;2.97;82.13;97850.69;5067266;28;20634;-70
2021/04/07 04:03:58;;;;;;;11.43;4.97;;;3.50;86.80;;;2.91;82.65;97855.28;5063091;28;20639;-70
2021/04/07 04:06:26;;;;;;;6.10;4.97;;;3.50;86.90;;;2.89;83.19;97860.47;5061914;28;20636;-70
2021/04/07 04:08:53;;;;;;;6.13;4.83;;;3.40;87.10;;;2.87;83.40;97859.72;5061739;28;20655;-70
2021/04/07 04:11:21;;;;;;;7.37;4.53;;;3.40;87.40;;;2.86;83.10;97868.34;5064620;28;20634;-70
2021/04/07 04:13:50;;;;;;;5.97;4.50;;;3.40;87.30;;;2.82;82.64;97873.69;5067316;28;20634;-70
2021/04/07 04:16:18;;;;;;;5.87;4.83;;;3.40;87.50;;;2.81;83.40;97867.69;5064785;28;20629;-70
2021/04/07 04:18:45;;;;;;;9.00;5.13;;;3.40;88.30;;;2.78;83.86;97877.25;5064958;28;20639;-70
2021/04/07 04:21:13;;;;;;;7.37;5.00;;;3.30;88.20;;;2.78;83.49;97886.72;5054852;28;20685;-70
2021/04/07 04:23:41;;;;;;;6.40;4.90;;;3.30;88.10;;;2.78;83.82;97886.72;5066886;28;20635;-70
2021/04/07 04:26:09;;;;;;;6.77;5.33;;;3.30;89.00;;;2.79;84.09;97893.56;5064274;28;20635;-70
2021/04/07 04:28:37;;;;;;;8.33;5.27;;;3.30;88.70;;;2.78;84.44;97899.59;5061573;28;20658;-70
2021/04/07 04:31:06;;;;;;;9.47;5.53;;;3.30;89.30;;;2.78;84.37;97897.84;5065159;28;20742;-70
2021/04/07 04:33:33;;;;;;;8.37;5.77;;;3.30;90.00;;;2.72;84.11;97898.13;5067390;28;20632;-70
2021/04/07 04:36:01;;;;;;;9.20;4.77;;;3.20;89.00;;;2.75;84.22;97897.16;5064208;28;20655;-70
2021/04/07 04:38:29;;;;;;;7.33;4.67;;;3.30;89.20;;;2.77;84.53;97910.78;5069444;28;21170;-70
2021/04/07 04:40:56;;;;;;;8.37;5.13;;;3.30;90.00;;;2.80;84.47;97911.53;5066059;28;20667;-70
2021/04/07 04:43:24;;;;;;;7.53;5.40;;;3.30;89.50;;;2.79;84.26;97913.25;5066237;28;20642;-70
2021/04/07 04:45:52;;;;;;;7.37;5.47;;;3.30;89.20;;;2.88;83.60;97925.75;5064898;28;20635;-70
2021/04/07 04:48:24;;;;;;;9.37;5.03;;;3.30;88.90;;;2.85;84.00;97922.47;5063574;28;20986;-70
2021/04/07 04:50:52;;;;;;;6.97;5.30;;;3.40;88.70;;;2.86;83.81;97927.56;5064284;28;20718;-70
2021/04/07 04:53:21;;;;;;;6.37;4.97;;;3.40;88.90;;;2.89;83.19;97929.19;5072847;28;20628;-70
2021/04/07 04:55:49;;;;;;;7.80;5.43;;;3.40;88.30;;;2.89;84.07;97942.88;5061680;28;20629;-70
2021/04/07 04:58:17;;;;;;;7.97;5.47;;;3.40;88.80;;;2.89;83.22;97942.03;5064879;28;20631;-69
2021/04/07 05:00:47;;;;;;;7.40;5.00;;;3.40;88.30;;;2.89;83.04;97952.34;5077167;28;20704;-69
2021/04/07 05:03:15;;;;;;;7.23;4.80;;;3.40;88.00;;;2.91;83.36;97960.84;5066076;28;20754;-69
2021/04/07 05:05:46;;;;;;;5.20;4.20;;;3.40;88.20;;;2.93;83.55;97966.75;5061971;28;20726;-69
2021/04/07 05:08:14;;;;;;;7.53;5.03;;;3.50;88.30;;;2.95;82.98;97963.22;5060611;28;20663;-71
2021/04/07 05:10:41;;;;;;;5.87;4.77;;;3.50;87.60;;;2.98;82.84;97970.81;5058497;28;20722;-71
2021/04/07 05:13:10;;;;;;;8.00;5.33;;;3.50;87.00;;;3.02;82.51;97969.81;5063538;28;21051;-70
2021/04/07 05:15:37;;;;;;;5.53;4.37;;;3.50;86.80;;;2.94;82.66;97976.97;5062009;28;20671;-71
2021/04/07 05:18:12;;;;;;;7.73;5.10;;;3.40;86.50;;;2.98;83.00;97982.88;5065777;28;20678;-69
2021/04/07 05:20:40;;;;;;;6.47;5.00;;;3.40;87.20;;;3.03;82.74;97986.09;5064916;28;20641;-70
2021/04/07 05:23:10;;;;;;;6.30;4.83;;;3.50;87.30;;;3.06;82.68;97985.97;5064498;28;20640;-69
2021/04/07 05:25:38;;;;;;;9.87;4.33;;;3.50;87.10;;;3.07;82.42;97985.06;5064470;28;20641;-69
2021/04/07 05:28:08;;;;;;;5.23;4.13;;;3.60;86.90;;;3.13;82.35;97993.38;5063232;28;20635;-69
2021/04/07 05:33:23;;;;;;;5.50;3.90;;;3.60;86.70;;;3.19;82.06;98003.44;5066150;28;20642;-69
2021/04/07 05:35:51;;;;;;;6.10;4.03;;;3.70;85.80;;;3.21;82.03;98008.53;5064436;28;20667;-69
2021/04/07 05:38:21;;;;;;;6.17;3.80;;;3.60;85.50;;;3.23;81.32;98015.28;5063833;28;20615;-69
2021/04/07 05:40:49;;;;;;;6.30;3.70;;;3.70;85.90;;;3.26;80.42;98014.31;5063622;28;20647;-69
2021/04/07 05:43:17;;;;;;;4.93;3.60;;;3.70;85.10;;;3.25;80.45;98015.22;5063501;28;20628;-70
2021/04/07 05:45:45;;;;;;;7.33;3.60;;;3.70;84.20;;;3.26;80.40;98020.28;5064576;28;20638;-70
2021/04/07 05:48:13;;;;;;;4.97;3.43;;;3.70;84.80;;;3.30;80.81;98020.13;5066710;28;20683;-70
2021/04/07 05:50:43;;;;;;;4.63;3.80;;;3.80;84.40;;;3.35;79.96;98033.66;5064996;28;20647;-70
2021/04/07 05:53:11;;;;;;;5.60;3.57;;;3.80;83.70;;;3.38;79.97;98036.13;5060580;28;20632;-69
2021/04/07 05:55:45;;;;;;;4.40;3.30;;;3.80;83.10;;;3.43;79.93;98039.34;5061701;28;21074;-68
2021/04/07 05:58:15;;;;;;;4.07;3.50;;;3.90;83.30;;;3.46;79.93;98040.97;5061336;28;20710;-68
2021/04/07 06:00:44;;;;;;;4.50;3.20;;;3.90;83.30;;;3.42;80.13;98052.28;5064080;28;20643;-69
2021/04/07 06:03:12;;;;;;;15.97;9.07;;;3.90;82.80;;;3.46;79.93;98059.81;5065547;28;21179;-68
2021/04/07 06:05:47;;;;;;;8.07;3.47;;;3.90;82.50;;;3.45;79.74;98058.13;5062110;28;20636;-69
2021/04/07 06:08:15;;;;;;;4.70;3.37;;;3.90;82.30;;;3.47;80.05;98065.81;5066360;28;21052;-68
2021/04/07 06:10:46;;;;;;;4.23;3.30;;;3.90;82.60;;;3.42;79.93;98073.72;5059410;28;20646;-68
2021/04/07 06:13:16;;;;;;;6.23;3.67;;;3.90;82.90;;;3.58;78.95;98076.50;5063854;28;20951;-68
2021/04/07 06:15:44;;;;;;;5.30;3.73;;;4.00;81.90;;;3.42;79.26;98078.88;5061569;28;20646;-68
2021/04/07 06:18:13;;;;;;;5.20;3.50;;;4.00;81.60;;;3.38;79.52;98074.78;5064227;28;20732;-68
2021/04/07 06:20:45;;;;;;;4.47;3.47;;;3.90;81.90;;;3.40;79.46;98080.69;5061254;28;21252;-68
2021/04/07 06:23:15;;;;;;;6.60;3.13;;;3.90;82.10;;;3.44;79.68;98084.84;5083206;28;20639;-68
2021/04/07 06:25:44;;;;;;;4.80;3.73;;;3.90;81.80;;;3.50;78.73;98092.31;5059997;28;21272;-69
2021/04/07 06:28:16;;;;;;;6.63;3.60;;;4.00;81.70;;;3.57;79.44;98090.31;5058421;28;20639;-68
2021/04/07 06:30:45;;;;;;;8.00;3.50;;;4.00;81.50;;;3.63;77.85;98090.91;5063135;28;20723;-68
2021/04/07 06:33:17;;;;;;;4.83;3.10;;;4.10;80.80;;;3.68;77.35;98095.88;5063494;28;20655;-67
2021/04/07 06:35:48;;;;;;;6.27;3.37;;;4.10;80.10;;;3.63;78.17;98101.22;5063659;28;20675;-67
2021/04/07 06:38:17;;;;;;;5.77;3.17;;;4.10;80.70;;;3.68;77.34;98106.19;5065741;28;20992;-67
2021/04/07 06:40:47;;;;;;;4.80;3.23;;;4.10;79.70;;;3.68;76.90;98109.59;5062566;28;20998;-67
2021/04/07 06:43:16;;;;;;;5.20;3.43;;;4.10;78.70;;;3.81;76.60;98118.50;5068025;28;20632;-68
2021/04/07 06:45:45;;;;;;;4.07;3.30;;;4.20;78.40;;;4.06;75.72;98121.72;5068981;28;21248;-68
2021/04/07 06:48:15;;;;;;;8.30;3.83;;;4.40;78.60;;;4.19;76.65;98130.63;5063280;28;20677;-68
2021/04/07 06:50:47;;;;;;;7.93;3.17;;;4.50;78.90;;;4.66;75.96;98136.25;5065358;28;20696;-68
2021/04/07 06:53:18;;;;;;;7.27;3.77;;;4.80;79.40;;;5.20;74.03;98138.00;5059048;28;20643;-68
2021/04/07 06:55:48;;;;;;;6.03;3.53;;;5.20;77.40;;;5.30;72.05;98135.81;5066398;28;20623;-67
2021/04/07 06:58:16;;;;;;;6.17;4.07;;;5.50;75.20;;;5.44;72.45;98136.84;5060776;28;20675;-67
2021/04/07 07:00:44;;;;;;;4.50;3.23;;;5.60;74.70;;;5.40;72.14;98134.47;5069373;28;20666;-68
2021/04/07 07:03:14;;;;;;;8.20;3.60;;;5.70;73.70;;;5.19;71.19;98135.47;5060818;28;20648;-68
2021/04/07 07:05:46;;;;;;;6.90;3.47;;;5.60;71.90;;;5.06;71.63;98143.84;5062412;28;20636;-66
2021/04/07 07:08:16;;;;;;;5.00;3.37;;;5.50;71.80;;;4.97;72.64;98139.09;5064214;28;20640;-66
2021/04/07 07:10:46;;;;;;;5.67;3.90;;;5.40;72.50;;;5.23;72.26;98150.78;5067333;28;20668;-66
2021/04/07 07:13:18;;;;;;;5.07;2.97;;;5.50;73.50;;;5.35;71.54;98152.78;5064223;28;20734;-66
2021/04/07 07:15:46;;;;;;;5.10;3.10;;;5.60;72.30;;;5.41;72.17;98151.63;5067898;28;21241;-66
2021/04/07 07:18:20;;;;;;;5.00;3.23;;;5.70;72.70;;;5.38;70.37;98155.22;5065631;28;20635;-67
2021/04/07 07:20:48;;;;;;;4.53;2.73;;;5.70;71.80;;;5.38;71.05;98160.41;5065424;28;20689;-67
2021/04/07 07:23:23;;;;;;;5.97;2.70;;;5.80;70.60;;;5.41;70.58;98162.84;5064424;28;20642;-68
2021/04/07 07:25:59;;;;;;;6.17;2.63;;;5.80;70.90;;;5.45;69.89;98164.34;5065238;28;20658;-68
2021/04/07 07:28:51;;;;;;;4.10;2.90;;;5.80;70.10;;;5.53;68.98;98166.59;5060157;28;21231;-67
2021/04/07 07:31:21;;;;;;;5.30;2.93;;;5.90;69.20;;;5.52;69.46;98173.50;5064867;28;20634;-67
2021/04/07 07:33:49;;;;;;;8.00;3.60;;;5.90;69.00;;;5.35;69.96;98180.38;5063740;28;21145;-67
2021/04/07 07:36:17;;;;;;;6.37;3.27;;;5.80;69.20;;;5.22;70.16;98185.28;5054241;28;20719;-67
2021/04/07 07:38:47;;;;;;;4.27;3.20;;;5.70;69.80;;;5.20;69.15;98184.50;5063307;28;20690;-66
2021/04/07 07:41:20;;;;;;;6.27;3.37;;;5.60;68.60;;;5.02;68.94;98188.81;5067302;28;20727;-68
2021/04/07 07:43:50;;;;;;;6.20;3.73;;;5.50;68.30;;;4.95;68.71;98192.59;5058202;28;20631;-67
2021/04/07 07:46:22;;;;;;;4.00;2.67;;;5.40;68.10;;;4.87;70.33;98192.09;5069087;28;20640;-68
2021/04/07 07:48:52;;;;;;;5.60;3.00;;;5.40;68.10;;;4.93;70.00;98195.25;5064701;28;21194;-68
2021/04/07 07:51:23;;;;;;;5.33;3.30;;;5.40;68.70;;;4.84;69.69;98199.97;5066769;28;21186;-74
2021/04/07 07:53:53;;;;;;;7.50;2.80;;;5.30;68.40;;;4.84;69.55;98207.72;5065095;28;20642;-68
2021/04/07 07:56:24;;;;;;;4.63;2.90;;;5.30;68.70;;;4.83;71.22;98208.66;5064897;28;20650;-67
2021/04/07 07:58:53;;;;;;;3.77;2.53;;;5.30;70.10;;;4.68;69.63;98210.13;5063934;28;20655;-66
2021/04/07 08:01:43;;;;;;;3.40;2.20;;;5.10;68.20;;;4.61;68.09;98213.06;5068390;28;20635;-65
2021/04/07 08:04:12;;;;;;;4.17;2.57;;;5.10;67.70;;;4.44;70.68;98206.94;5064947;28;21197;-65
2021/04/07 08:06:40;;;;;;;4.43;2.83;;;4.90;68.70;;;4.56;70.45;98215.00;5069190;28;20646;-66
2021/04/07 08:09:09;;;;;;;3.33;2.70;;;5.00;69.10;;;4.61;70.29;98215.63;5069382;28;20656;-66
2021/04/07 08:11:38;;;;;;;4.07;2.63;;;5.00;69.50;;;4.59;69.52;98212.28;5066016;28;20670;-67
2021/04/07 08:14:08;;;;;;;3.03;2.30;;;5.00;68.40;;;4.57;69.91;98228.75;5084149;28;20628;-66
2021/04/07 08:16:37;;;;;;;8.30;2.57;;;5.10;68.00;;;4.50;68.95;98224.75;5061657;28;21027;-67
2021/04/07 08:19:06;;;;;;;5.57;2.47;;;5.00;67.80;;;4.35;69.47;98226.22;5065000;28;20689;-68
2021/04/07 08:21:38;;;;;;;3.60;2.40;;;4.80;67.80;;;4.40;70.00;98231.19;5062824;28;21006;-67
2021/04/07 08:24:12;;;;;;;3.03;2.30;;;4.80;68.40;;;4.55;69.92;98233.97;5064023;28;20762;-69
2021/04/07 08:26:44;;;;;;;3.47;2.50;;;4.90;68.60;;;4.55;70.04;98233.97;5061678;28;20712;-68
2021/04/07 08:29:13;;;;;;;3.53;2.40;;;4.90;68.50;;;4.54;68.74;98229.72;5060803;28;21300;-70
2021/04/07 08:31:45;;;;;;;6.63;2.50;;;4.90;67.00;;;4.44;67.58;98225.84;5062353;28;21129;-68
2021/04/07 08:34:17;;;;;;;5.27;2.47;;;4.90;67.40;;;4.44;68.91;98227.59;5064372;28;20634;-69
2021/04/07 08:36:46;;;;;;;3.23;2.20;;;4.90;68.00;;;4.48;68.66;98227.41;5065677;28;20636;-69
2021/04/07 08:39:18;;;;;;;6.53;2.43;;;4.90;68.00;;;4.56;69.54;98235.66;5062286;28;21035;-68
2021/04/07 08:41:47;;;;;;;5.93;2.10;;;5.00;67.90;;;4.65;69.26;98243.00;5067220;28;20663;-67
2021/04/07 08:44:24;;;;;;;3.83;2.17;;;5.00;68.70;;;4.66;69.81;98241.25;5063093;28;20629;-67
2021/04/07 08:46:53;;;;;;;4.20;2.83;;;5.00;68.70;;;4.61;69.08;98244.03;5068566;28;20718;-67
2021/04/07 08:49:39;;;;;;;2.40;1.63;;;5.00;69.00;;;4.68;67.04;98244.63;5064477;28;20671;-67
2021/04/07 08:52:16;;;;;;;8.63;2.37;;;5.10;66.60;;;4.81;67.47;98244.00;5061811;28;20651;-67
2021/04/07 08:54:46;;;;;;;2.70;1.83;;;5.10;66.60;;;4.86;68.25;98253.25;5079328;28;20659;-67
2021/04/07 08:57:30;;;;;;;4.30;2.30;;;5.20;67.00;;;4.87;67.73;98251.50;5067090;28;20631;-67
2021/04/07 09:00:01;;;;;;;5.57;2.60;;;5.20;66.70;;;4.89;67.54;98260.03;5061181;28;20674;-68
2021/04/07 09:02:30;;;;;;;2.57;2.30;;;5.20;66.60;;;4.89;68.07;98265.22;5065829;28;20642;-70
2021/04/07 09:05:07;;;;;;;3.93;2.37;;;5.20;67.10;;;4.91;70.43;98264.22;5068121;28;20651;-66
2021/04/07 09:07:39;;;;;;;4.60;2.93;;;5.30;69.10;;;4.89;68.22;98265.22;5064631;28;20734;-68
2021/04/07 09:10:14;;;;;;;4.23;2.33;;;5.20;67.80;;;4.99;68.90;98276.81;5075251;28;20660;-68
2021/04/07 09:12:48;;;;;;;4.00;2.37;;;5.30;67.50;;;4.99;67.47;98269.91;5065832;28;21160;-67
2021/04/07 09:15:19;;;;;;;5.67;2.87;;;5.40;66.70;;;4.91;68.76;98273.72;5065717;28;20682;-69
2021/04/07 09:17:51;;;;;;;4.50;3.40;;;5.30;66.60;;;4.89;69.03;98268.63;5062763;28;20646;-69
2021/04/07 09:20:42;;;;;;;4.90;3.47;;;5.30;67.50;;;4.85;69.34;98274.00;5057240;28;20658;-69
2021/04/07 09:23:26;;;;;;;6.10;3.20;;;5.30;67.90;;;4.78;70.75;98283.75;5063830;28;20623;-69
2021/04/07 09:26:06;;;;;;;4.97;3.10;;;5.20;69.20;;;4.68;72.17;98291.94;5049355;28;20724;-69
2021/04/07 09:28:37;;;;;;;6.30;3.83;;;5.20;70.00;;;4.58;72.02;98300.97;5062745;28;20654;-69
2021/04/07 09:31:11;;;;;;;5.47;3.40;;;5.10;70.70;;;4.55;73.16;98301.09;5065973;28;20643;-69
2021/04/07 09:33:46;;;;;;;4.70;3.43;;;5.00;72.40;;;4.76;73.41;98295.03;5065267;28;20990;-69
2021/04/07 09:36:19;;;;;;;4.47;3.10;;;5.10;73.40;;;4.80;74.05;98296.59;5063080;28;22214;-69
2021/04/07 09:38:53;;;;;;;4.67;4.00;;;5.10;73.60;;;4.66;72.46;98304.09;5060150;28;20627;-69
2021/04/07 09:41:23;;;;;;;5.77;3.70;;;5.00;72.30;;;4.54;72.52;98299.44;5062006;28;20646;-69
2021/04/07 09:43:51;;;;;;;7.40;3.63;;;5.00;71.60;;;4.65;71.56;98302.41;5093926;28;21143;-69
2021/04/07 09:46:25;;;;;;;7.50;3.67;;;5.00;71.40;;;4.69;72.00;98291.88;5063199;28;20711;-69
2021/04/07 09:48:55;;;;;;;6.17;3.90;;;5.10;72.10;;;4.74;72.72;98299.44;5062884;28;20668;-69
2021/04/07 09:51:29;;;;;;;4.93;3.60;;;5.10;71.90;;;4.69;72.92;98299.63;5063525;28;20644;-69
2021/04/07 09:54:23;;;;;;;6.17;4.00;;;5.10;71.90;;;4.62;71.46;98306.88;5059506;28;21002;-69
2021/04/07 09:56:55;;;;;;;5.93;3.33;;;5.00;71.40;;;4.76;72.08;98301.03;5064642;28;20730;-71
2021/04/07 09:59:37;;;;;;;4.97;3.87;;;5.10;71.90;;;4.83;70.92;98304.22;5064059;28;20647;-67
2021/04/07 10:02:12;;;;;;;6.87;4.07;;;5.20;71.40;;;4.90;72.58;98297.88;5063009;28;20647;-68
2021/04/07 10:04:42;;;;;;;5.07;3.77;;;5.30;71.80;;;4.91;71.01;98304.72;5060894;28;20663;-69
2021/04/07 10:07:13;;;;;;;5.40;4.40;;;5.30;70.80;;;4.97;71.83;98301.88;5061203;28;20738;-71
2021/04/07 10:09:44;;;;;;;8.63;4.57;;;5.30;71.20;;;5.10;71.25;98295.25;5060942;28;20663;-69
2021/04/07 10:12:19;;;;;;;6.57;5.30;;;5.30;70.90;;;5.13;69.35;98294.22;5065687;28;20627;-69
2021/04/07 10:14:50;;;;;;;9.90;6.13;;;5.40;69.20;;;5.29;69.50;98300.41;5080193;28;20659;-69
2021/04/07 10:17:21;;;;;;;5.50;4.23;;;5.60;69.00;;;5.37;68.27;98295.75;5065240;28;21093;-68
2021/04/07 10:19:50;;;;;;;6.27;3.83;;;5.70;67.70;;;5.26;68.96;98295.38;5061350;28;21158;-68
2021/04/07 10:22:25;;;;;;;4.97;3.77;;;5.70;67.30;;;5.30;68.29;98296.91;5060045;28;20636;-68
2021/04/07 10:25:02;;;;;;;7.17;3.50;;;5.70;66.70;;;5.24;69.04;98286.84;5057338;28;20690;-68
2021/04/07 10:27:30;;;;;;;4.50;3.00;;;5.60;67.00;;;5.29;68.35;98292.66;5062321;28;21182;-68
2021/04/07 10:30:06;;;;;;;8.10;3.90;;;5.70;66.50;;;5.30;68.72;98289.16;5063482;28;21210;-68
2021/04/07 10:32:44;;;;;;;4.60;2.83;;;5.70;67.40;;;5.42;69.35;98293.78;5060654;28;20702;-69
2021/04/07 10:35:19;;;;;;;5.23;3.30;;;5.80;67.40;;;5.41;69.67;98299.88;5066062;28;20667;-69
2021/04/07 10:37:53;;;;;;;4.60;2.87;;;5.70;68.00;;;5.37;67.19;98307.84;5065229;28;20643;-69
2021/04/07 10:40:26;;;;;;;4.43;3.97;;;5.80;66.40;;;5.30;68.08;98315.00;5063430;28;20620;-69
2021/04/07 10:42:53;;;;;;;5.63;3.50;;;5.70;66.10;;;5.34;69.16;98315.72;5064773;28;20646;-69
2021/04/07 10:45:24;;;;;;;7.17;3.30;;;5.80;67.00;;;5.49;68.99;98320.19;5060795;28;20672;-69
2021/04/07 10:48:03;;;;;;;5.53;3.67;;;5.90;67.70;;;5.61;68.33;98323.09;5057348;28;20636;-69